Time;durP1;ratioP1;P1;durP2;ratioP2;P2;SDS_P1;SDS_P2;PMS_P1;PMS_P2;Temp;Humidity;BMP_temperature;BMP_pressure;BME280_temperature;BME280_humidity;BME280_pressure;Samples;Min_cycle;Max_cycle;Signal;HPM_P1;HPM_P2
2024/02/26 00:02:06;;;;;;;16.80;5.10;;;;;;;5.55;100.00;99674.03;5063725;28;20521;-73
2024/02/26 00:04:32;;;;;;;15.63;5.18;;;;;;;5.50;100.00;99667.00;5060780;28;20595;-73
2024/02/26 00:06:58;;;;;;;16.70;5.28;;;;;;;5.47;100.00;99667.88;5063612;28;20036;-72
2024/02/26 00:09:23;;;;;;;17.35;5.18;;;;;;;5.48;100.00;99672.25;5061490;28;20117;-72
2024/02/26 00:11:49;;;;;;;17.73;5.10;;;;;;;5.41;100.00;99667.84;5062446;28;20091;-72
2024/02/26 00:14:14;;;;;;;16.73;5.15;;;;;;;5.41;100.00;99673.06;5062439;28;20065;-73
2024/02/26 00:16:41;;;;;;;16.05;5.15;;;;;;;5.38;100.00;99671.31;5061198;28;20457;-74
2024/02/26 00:19:06;;;;;;;16.90;5.30;;;;;;;5.37;100.00;99676.53;5063501;28;20048;-72
2024/02/26 00:21:32;;;;;;;17.05;5.28;;;;;;;5.37;100.00;99676.53;5060347;28;20071;-73
2024/02/26 00:23:57;;;;;;;17.02;5.32;;;;;;;5.38;100.00;99668.69;5063735;28;20029;-72
2024/02/26 00:26:22;;;;;;;17.65;5.32;;;;;;;5.36;100.00;99669.56;5061755;28;20032;-72
2024/02/26 00:28:48;;;;;;;16.58;5.30;;;;;;;5.35;100.00;99668.66;5062123;28;20580;-72
2024/02/26 00:31:13;;;;;;;16.05;5.20;;;;;;;5.31;100.00;99672.13;5062583;28;20032;-73
2024/02/26 00:33:38;;;;;;;15.20;5.20;;;;;;;5.30;100.00;99670.41;5060811;28;20025;-72
2024/02/26 00:36:04;;;;;;;16.63;5.28;;;;;;;5.28;100.00;99666.88;5063776;28;20031;-73
2024/02/26 00:38:30;;;;;;;15.85;4.97;;;;;;;5.33;100.00;99669.50;5056322;28;20037;-73
2024/02/26 00:40:55;;;;;;;15.55;5.03;;;;;;;5.26;100.00;99663.38;5063343;28;20043;-73
2024/02/26 00:43:21;;;;;;;15.90;5.07;;;;;;;5.24;100.00;99659.84;5061284;28;20028;-72
2024/02/26 00:45:47;;;;;;;15.57;5.30;;;;;;;5.26;100.00;99652.00;5060672;28;20029;-73
2024/02/26 00:48:13;;;;;;;16.25;5.20;;;;;;;5.23;100.00;99652.88;5062392;28;20039;-78
2024/02/26 00:50:39;;;;;;;15.73;5.32;;;;;;;5.21;100.00;99658.09;5060894;28;20033;-84
2024/02/26 00:53:04;;;;;;;15.63;5.03;;;;;;;5.21;100.00;99652.88;5062403;28;20025;-84
2024/02/26 00:55:29;;;;;;;16.08;5.30;;;;;;;5.20;100.00;99652.84;5060117;28;20025;-81
2024/02/26 00:57:55;;;;;;;16.80;5.10;;;;;;;5.17;100.00;99655.41;5063328;28;20097;-84
2024/02/26 01:00:20;;;;;;;16.20;5.18;;;;;;;5.15;100.00;99650.16;5062336;28;20044;-77
2024/02/26 01:02:49;;;;;;;14.02;4.88;;;;;;;5.13;100.00;99644.06;5063694;28;20033;-74
2024/02/26 01:05:16;;;;;;;16.05;5.03;;;;;;;5.14;100.00;99652.78;5065877;28;20056;-83
2024/02/26 01:07:41;;;;;;;14.70;4.90;;;;;;;5.10;100.00;99644.03;5062956;28;20171;-73
2024/02/26 01:10:07;;;;;;;16.13;5.32;;;;;;;5.11;100.00;99658.91;5066662;28;20479;-72
2024/02/26 01:12:34;;;;;;;15.35;5.10;;;;;;;5.10;100.00;99662.38;5063640;28;20060;-85
2024/02/26 01:15:00;;;;;;;15.15;4.97;;;;;;;5.09;100.00;99665.00;5066733;28;20480;-87
2024/02/26 01:17:25;;;;;;;14.50;5.03;;;;;;;5.12;100.00;99665.88;5063833;28;20437;-88
2024/02/26 01:19:50;;;;;;;15.38;5.20;;;;;;;5.15;100.00;99668.50;5065760;28;20039;-85
2024/02/26 01:22:16;;;;;;;14.18;4.90;;;;;;;5.13;100.00;99670.25;5065117;28;20098;-86
2024/02/26 01:24:41;;;;;;;15.20;5.00;;;;;;;5.12;100.00;99671.13;5064054;28;20387;-87
2024/02/26 01:27:08;;;;;;;13.48;4.68;;;;;;;5.13;100.00;99665.03;5066601;28;20039;-84
2024/02/26 01:29:34;;;;;;;15.57;5.20;;;;;;;5.12;100.00;99676.34;5063045;28;20479;-86
2024/02/26 01:31:59;;;;;;;14.13;5.00;;;;;;;5.11;100.00;99682.47;5066285;28;20107;-87
2024/02/26 01:34:24;;;;;;;15.48;5.07;;;;;;;5.11;100.00;99679.88;5063967;28;20051;-84
2024/02/26 01:36:50;;;;;;;14.98;4.90;;;;;;;5.08;100.00;99679.81;5065035;28;20048;-85
2024/02/26 01:39:15;;;;;;;14.93;5.10;;;;;;;5.07;100.00;99676.31;5063745;28;20024;-80
2024/02/26 01:41:40;;;;;;;15.13;4.93;;;;;;;5.06;100.00;99676.31;5063734;28;20045;-80
2024/02/26 01:44:06;;;;;;;15.95;5.03;;;;;;;5.03;100.00;99682.41;5065061;28;20028;-80
2024/02/26 01:46:34;;;;;;;15.35;5.18;;;;;;;5.03;100.00;99697.25;5063251;28;20056;-85
2024/02/26 01:49:01;;;;;;;14.98;5.18;;;;;;;5.01;100.00;99697.25;5065996;28;20071;-86
2024/02/26 01:51:27;;;;;;;15.52;5.38;;;;;;;5.02;100.00;99695.47;5063344;28;20028;-72
2024/02/26 01:53:53;;;;;;;15.23;5.30;;;;;;;5.03;100.00;99692.00;5065152;28;20099;-74
2024/02/26 01:56:21;;;;;;;15.07;5.10;;;;;;;5.03;100.00;99707.72;5064334;28;20107;-82
2024/02/26 01:58:46;;;;;;;14.35;5.05;;;;;;;5.03;100.00;99702.50;5063937;28;20025;-82
2024/02/26 02:01:14;;;;;;;15.35;5.07;;;;;;;5.03;100.00;99697.25;5065371;28;20029;-86
2024/02/26 02:03:41;;;;;;;14.82;4.88;;;;;;;5.02;100.00;99696.38;5062648;28;20041;-83
2024/02/26 02:06:07;;;;;;;14.27;4.85;;;;;;;5.03;100.00;99705.09;5065870;28;20028;-81
2024/02/26 02:08:35;;;;;;;15.93;4.90;;;;;;;5.07;100.00;99705.13;5062763;28;20037;-81
2024/02/26 02:11:00;;;;;;;16.13;5.40;;;;;;;5.00;100.00;99700.72;5065768;28;20376;-84
2024/02/26 02:13:26;;;;;;;14.73;5.13;;;;;;;5.00;100.00;99705.09;5063255;28;20078;-82
2024/02/26 02:15:52;;;;;;;14.35;5.18;;;;;;;4.96;100.00;99695.44;5063261;28;20498;-82
2024/02/26 02:18:17;;;;;;;14.25;5.15;;;;;;;4.94;100.00;99695.44;5063922;28;20081;-83
2024/02/26 02:20:43;;;;;;;14.80;5.35;;;;;;;4.95;100.00;99696.28;5061848;28;20033;-77
2024/02/26 02:23:08;;;;;;;15.40;5.43;;;;;;;4.89;100.00;99690.16;5065374;28;20039;-82
2024/02/26 02:25:33;;;;;;;16.48;5.50;;;;;;;4.85;100.00;99701.47;5062092;28;20021;-82
2024/02/26 02:27:59;;;;;;;16.65;5.80;;;;;;;4.81;100.00;99702.28;5064982;28;20036;-85
2024/02/26 02:30:27;;;;;;;15.43;5.55;;;;;;;4.80;100.00;99700.53;5063083;28;20027;-86
2024/02/26 02:32:53;;;;;;;16.55;5.95;;;;;;;4.77;100.00;99705.72;5064357;28;20040;-73
2024/02/26 02:35:19;;;;;;;17.05;6.05;;;;;;;4.76;100.00;99704.00;5063521;28;20029;-74
2024/02/26 02:37:44;;;;;;;15.77;5.70;;;;;;;4.74;100.00;99703.09;5063111;28;20056;-73
2024/02/26 02:40:09;;;;;;;17.38;6.10;;;;;;;4.71;100.00;99710.91;5064863;28;20029;-76
2024/02/26 02:42:35;;;;;;;17.02;6.18;;;;;;;4.68;100.00;99716.13;5061678;28;20073;-85
2024/02/26 02:45:00;;;;;;;17.25;5.80;;;;;;;4.65;100.00;99716.97;5065209;28;20078;-81
2024/02/26 02:47:26;;;;;;;17.27;6.00;;;;;;;4.66;100.00;99718.72;5062227;28;20029;-83
2024/02/26 02:49:51;;;;;;;15.30;5.80;;;;;;;4.63;100.00;99723.03;5063404;28;20099;-78
2024/02/26 02:52:16;;;;;;;16.63;6.13;;;;;;;4.63;100.00;99723.03;5063723;28;20037;-83
2024/02/26 02:54:42;;;;;;;17.13;6.13;;;;;;;4.62;100.00;99723.91;5062187;28;20056;-82
2024/02/26 02:57:10;;;;;;;16.98;6.00;;;;;;;4.61;100.00;99723.03;5065254;28;20025;-85
2024/02/26 02:59:36;;;;;;;16.35;6.05;;;;;;;4.61;100.00;99724.78;5061727;28;20029;-84
2024/02/26 03:02:02;;;;;;;16.80;6.30;;;;;;;4.61;100.00;99716.91;5057366;28;20025;-85
2024/02/26 03:04:27;;;;;;;16.70;6.50;;;;;;;4.60;100.00;99718.66;5065078;28;20049;-83
2024/02/26 03:06:52;;;;;;;17.27;6.43;;;;;;;4.58;100.00;99719.50;5062918;28;20025;-82
2024/02/26 03:09:18;;;;;;;17.08;6.20;;;;;;;4.58;100.00;99719.50;5062929;28;20041;-84
2024/02/26 03:11:43;;;;;;;16.67;6.45;;;;;;;4.57;100.00;99726.47;5064485;28;20036;-81
2024/02/26 03:14:09;;;;;;;18.60;6.55;;;;;;;4.56;100.00;99731.69;5061271;28;20068;-83
2024/02/26 03:16:35;;;;;;;17.65;6.15;;;;;;;4.56;100.00;99721.22;5064674;28;20031;-83
2024/02/26 03:19:00;;;;;;;17.60;6.70;;;;;;;4.56;100.00;99726.44;5061423;28;20033;-83
2024/02/26 03:21:27;;;;;;;17.67;6.85;;;;;;;4.52;100.00;99731.66;5045027;28;20121;-74
2024/02/26 03:23:53;;;;;;;18.02;7.00;;;;;;;4.53;100.00;99727.31;5061739;28;20027;-72
2024/02/26 03:26:18;;;;;;;18.10;6.65;;;;;;;4.51;100.00;99732.53;5061556;28;20190;-74
2024/02/26 03:28:44;;;;;;;18.52;6.53;;;;;;;4.48;100.00;99731.59;5063315;28;20028;-74
2024/02/26 03:31:10;;;;;;;18.25;6.95;;;;;;;4.47;100.00;99737.69;5061191;28;20471;-73
2024/02/26 03:33:36;;;;;;;17.40;6.63;;;;;;;4.43;100.00;99723.72;5064545;28;20540;-72
2024/02/26 03:36:02;;;;;;;17.73;6.82;;;;;;;4.42;100.00;99727.19;5059604;28;20033;-74
2024/02/26 03:38:28;;;;;;;16.70;6.20;;;;;;;4.43;100.00;99728.94;5063624;28;20499;-74
2024/02/26 03:40:53;;;;;;;17.63;6.13;;;;;;;4.40;100.00;99730.63;5062044;28;20475;-74
2024/02/26 03:43:19;;;;;;;17.85;6.47;;;;;;;4.39;100.00;99724.53;5062312;28;20029;-74
2024/02/26 03:45:44;;;;;;;18.88;6.63;;;;;;;4.37;100.00;99726.25;5063211;28;20024;-73
2024/02/26 03:48:09;;;;;;;17.27;6.20;;;;;;;4.35;100.00;99725.34;5060969;28;20048;-72
2024/02/26 03:50:35;;;;;;;16.67;6.53;;;;;;;4.34;100.00;99721.00;5064334;28;20037;-74
2024/02/26 03:53:00;;;;;;;17.88;6.30;;;;;;;4.34;100.00;99718.38;5060982;28;20070;-73
2024/02/26 03:55:26;;;;;;;15.60;6.00;;;;;;;4.34;100.00;99726.22;5062162;28;20361;-74
2024/02/26 03:57:52;;;;;;;17.80;6.40;;;;;;;4.32;100.00;99720.09;5061989;28;20570;-74
2024/02/26 04:00:17;;;;;;;17.40;6.43;;;;;;;4.34;100.00;99731.47;5060920;28;20546;-74
2024/02/26 04:02:43;;;;;;;18.15;6.85;;;;;;;4.33;100.00;99729.69;5063127;28;20029;-72
2024/02/26 04:05:11;;;;;;;17.33;6.45;;;;;;;4.33;100.00;99727.09;5060527;28;20372;-73
2024/02/26 04:07:37;;;;;;;17.40;6.47;;;;;;;4.30;100.00;99724.44;5064105;28;20047;-74
2024/02/26 04:10:06;;;;;;;17.48;6.50;;;;;;;4.33;100.00;99730.56;5056415;28;20383;-84
2024/02/26 04:12:31;;;;;;;17.13;6.22;;;;;;;4.35;100.00;99733.19;5063838;28;20040;-86
2024/02/26 04:14:56;;;;;;;17.83;6.28;;;;;;;4.34;100.00;99728.84;5061763;28;20025;-84
2024/02/26 04:17:22;;;;;;;16.73;6.40;;;;;;;4.35;100.00;99735.81;5061202;28;20029;-86
2024/02/26 04:19:47;;;;;;;16.80;6.22;;;;;;;4.40;100.00;99734.16;5062487;28;20085;-79
2024/02/26 04:22:12;;;;;;;15.68;5.95;;;;;;;4.37;100.00;99731.50;5061347;28;20025;-87
2024/02/26 04:24:38;;;;;;;16.50;6.00;;;;;;;4.35;100.00;99728.88;5062732;28;20029;-86
2024/02/26 04:27:03;;;;;;;16.60;6.20;;;;;;;4.37;100.00;99736.72;5060530;28;20032;-88
2024/02/26 04:29:28;;;;;;;16.05;5.93;;;;;;;4.42;100.00;99739.41;5062286;28;20075;-87
2024/02/26 04:31:54;;;;;;;16.63;6.20;;;;;;;4.39;100.00;99740.22;5061502;28;20021;-83
2024/02/26 04:34:19;;;;;;;17.20;6.10;;;;;;;4.39;100.00;99739.38;5060721;28;20079;-85
2024/02/26 04:36:44;;;;;;;16.83;6.30;;;;;;;4.37;100.00;99736.72;5065939;28;20040;-86
2024/02/26 04:39:10;;;;;;;17.70;6.47;;;;;;;4.40;100.00;99747.22;5064432;28;20118;-86
2024/02/26 04:41:35;;;;;;;17.90;6.47;;;;;;;4.42;100.00;99755.09;5067801;28;20056;-86
2024/02/26 04:44:01;;;;;;;18.25;6.70;;;;;;;4.42;100.00;99745.50;5064115;28;20036;-83
2024/02/26 04:46:28;;;;;;;17.40;6.60;;;;;;;4.37;100.00;99752.44;5066644;28;20025;-82
2024/02/26 04:48:53;;;;;;;17.35;6.70;;;;;;;4.34;100.00;99752.41;5064028;28;20049;-72
2024/02/26 04:51:19;;;;;;;19.48;7.20;;;;;;;4.35;100.00;99757.66;5064248;28;20029;-82
2024/02/26 04:53:44;;;;;;;18.20;7.05;;;;;;;4.34;100.00;99757.63;5066094;28;20031;-86
2024/02/26 04:56:09;;;;;;;18.25;7.03;;;;;;;4.32;100.00;99754.09;5064110;28;20092;-87
2024/02/26 04:58:35;;;;;;;17.75;6.93;;;;;;;4.32;100.00;99760.19;5067182;28;20378;-85
2024/02/26 05:01:00;;;;;;;17.90;7.00;;;;;;;4.31;100.00;99765.41;5064042;28;20035;-86
2024/02/26 05:03:25;;;;;;;17.80;7.00;;;;;;;4.31;100.00;99766.31;5066170;28;20263;-83
2024/02/26 05:05:51;;;;;;;18.25;7.07;;;;;;;4.32;100.00;99764.56;5065184;28;20035;-86
2024/02/26 05:08:16;;;;;;;18.20;7.30;;;;;;;4.29;100.00;99759.31;5064626;28;20040;-86
2024/02/26 05:10:43;;;;;;;18.08;7.25;;;;;;;4.26;100.00;99754.91;5065384;28;20115;-84
2024/02/26 05:13:08;;;;;;;18.27;7.10;;;;;;;4.27;100.00;99756.66;5062349;28;20052;-87
2024/02/26 05:15:34;;;;;;;18.70;7.60;;;;;;;4.24;100.00;99755.72;5067011;28;20024;-81
2024/02/26 05:17:59;;;;;;;18.95;6.80;;;;;;;4.23;100.00;99752.25;5062625;28;20033;-74
2024/02/26 05:20:25;;;;;;;17.15;6.57;;;;;;;4.25;100.00;99758.41;5065544;28;20021;-73
2024/02/26 05:22:50;;;;;;;17.02;6.60;;;;;;;4.28;100.00;99768.00;5065169;28;20119;-73
2024/02/26 05:25:16;;;;;;;18.20;6.55;;;;;;;4.33;100.00;99755.88;5064121;28;20034;-72
2024/02/26 05:27:41;;;;;;;17.95;6.30;;;;;;;4.29;100.00;99767.16;5066074;28;20032;-72
2024/02/26 05:30:07;;;;;;;16.27;5.90;;;;;;;4.31;100.00;99762.78;5063333;28;20478;-72
2024/02/26 05:32:33;;;;;;;16.08;6.15;;;;;;;4.32;100.00;99767.19;5066449;28;20039;-74
2024/02/26 05:34:58;;;;;;;16.23;6.00;;;;;;;4.34;100.00;99771.59;5063739;28;20025;-73
2024/02/26 05:37:23;;;;;;;16.85;6.13;;;;;;;4.39;100.00;99776.88;5065272;28;20130;-73
2024/02/26 05:39:49;;;;;;;15.23;5.50;;;;;;;4.41;100.00;99776.88;5064870;28;20085;-73
2024/02/26 05:42:14;;;;;;;15.63;5.80;;;;;;;4.36;100.00;99782.06;5062489;28;20056;-74
2024/02/26 05:44:39;;;;;;;16.73;6.10;;;;;;;4.35;100.00;99786.44;5066182;28;20036;-74
2024/02/26 05:47:05;;;;;;;16.80;5.80;;;;;;;4.34;100.00;99791.66;5062507;28;20033;-74
2024/02/26 05:49:30;;;;;;;15.88;5.88;;;;;;;4.33;100.00;99793.38;5064618;28;20471;-72
2024/02/26 05:51:56;;;;;;;16.92;6.22;;;;;;;4.33;100.00;99788.13;5062721;28;20036;-72
2024/02/26 05:54:21;;;;;;;16.38;6.50;;;;;;;4.33;100.00;99789.88;5064676;28;20036;-74
2024/02/26 05:56:46;;;;;;;18.00;6.25;;;;;;;4.32;100.00;99806.44;5064844;28;20020;-84
2024/02/26 05:59:12;;;;;;;16.00;6.05;;;;;;;4.30;100.00;99801.19;5061781;28;20179;-85
2024/02/26 06:01:37;;;;;;;16.75;6.28;;;;;;;4.33;100.00;99813.44;5066075;28;20024;-87
2024/02/26 06:04:03;;;;;;;17.15;6.60;;;;;;;4.31;100.00;99812.50;5062712;28;20052;-87
2024/02/26 06:06:28;;;;;;;16.83;6.32;;;;;;;4.32;100.00;99816.91;5064077;28;20032;-81
2024/02/26 06:08:53;;;;;;;23.33;11.98;;;;;;;4.31;100.00;99816.03;5063560;28;20123;-86
2024/02/26 06:11:19;;;;;;;30.35;19.60;;;;;;;4.30;100.00;99818.63;5063858;28;20032;-73
2024/02/26 06:13:44;;;;;;;30.13;18.90;;;;;;;4.30;100.00;99827.34;5063606;28;20020;-85
2024/02/26 06:16:09;;;;;;;19.15;7.57;;;;;;;4.29;100.00;99824.72;5062397;28;20033;-83
2024/02/26 06:18:35;;;;;;;21.40;10.88;;;;;;;4.29;100.00;99825.56;5064537;28;20078;-87
2024/02/26 06:21:00;;;;;;;20.27;9.77;;;;;;;4.31;100.00;99825.59;5062450;28;20048;-82
2024/02/26 06:23:26;;;;;;;19.60;9.60;;;;;;;4.29;100.00;99843.03;5064353;28;20040;-78
2024/02/26 06:25:52;;;;;;;19.77;9.75;;;;;;;4.32;100.00;99838.69;5064167;28;20432;-87
2024/02/26 06:28:17;;;;;;;19.48;8.25;;;;;;;4.32;100.00;99837.84;5062883;28;20563;-87
2024/02/26 06:30:42;;;;;;;20.92;11.30;;;;;;;4.30;100.00;99845.66;5065102;28;20020;-87
2024/02/26 06:33:08;;;;;;;19.67;9.50;;;;;;;4.29;100.00;99850.88;5061942;28;20403;-87
2024/02/26 06:35:33;;;;;;;20.05;10.00;;;;;;;4.27;100.00;99853.47;5065182;28;20025;-88
2024/02/26 06:37:58;;;;;;;20.33;10.23;;;;;;;4.26;100.00;99859.56;5061607;28;20494;-83
2024/02/26 06:40:25;;;;;;;22.58;13.63;;;;;;;4.26;100.00;99861.31;5064217;28;20024;-87
2024/02/26 06:42:50;;;;;;;21.40;11.45;;;;;;;4.24;100.00;99865.63;5063531;28;20040;-87
2024/02/26 06:45:18;;;;;;;23.85;15.38;;;;;;;4.22;100.00;99859.50;5062976;28;20396;-87
2024/02/26 06:47:43;;;;;;;19.50;8.88;;;;;;;4.25;100.00;99867.38;5064444;28;20450;-83
2024/02/26 06:50:11;;;;;;;20.42;10.60;;;;;;;4.19;100.00;99860.31;5061798;28;20124;-81
2024/02/26 06:52:36;;;;;;;28.75;22.40;;;;;;;4.17;100.00;99875.13;5058068;28;20033;-72
2024/02/26 06:55:02;;;;;;;26.08;15.88;;;;;;;4.15;100.00;99875.09;5064647;28;20028;-73
2024/02/26 06:57:27;;;;;;;20.92;10.60;;;;;;;4.14;100.00;99875.97;5061711;28;20043;-84
2024/02/26 06:59:52;;;;;;;20.38;9.57;;;;;;;4.18;100.00;99876.91;5063230;28;20070;-87
2024/02/26 07:02:18;;;;;;;19.40;9.30;;;;;;;4.14;100.00;99881.19;5063874;28;20044;-81
2024/02/26 07:04:43;;;;;;;21.15;10.90;;;;;;;4.18;100.00;99882.13;5062035;28;20076;-82
2024/02/26 07:07:09;;;;;;;20.92;11.07;;;;;;;4.14;100.00;99891.66;5064873;28;20051;-74
2024/02/26 07:09:34;;;;;;;22.80;14.70;;;;;;;4.13;100.00;99889.88;5057091;28;20025;-73
2024/02/26 07:11:59;;;;;;;21.02;11.18;;;;;;;4.12;100.00;99900.31;5064310;28;20031;-73
2024/02/26 07:14:25;;;;;;;22.00;12.77;;;;;;;4.13;100.00;99905.56;5062188;28;20043;-74
2024/02/26 07:16:51;;;;;;;19.95;9.65;;;;;;;4.16;100.00;99905.63;5062606;28;20039;-74
2024/02/26 07:19:16;;;;;;;20.23;10.60;;;;;;;4.15;100.00;99909.13;5063702;28;20028;-74
2024/02/26 07:21:41;;;;;;;21.13;11.00;;;;;;;4.13;100.00;99907.31;5061289;28;20036;-74
2024/02/26 07:24:07;;;;;;;19.83;9.57;;;;;;;4.15;100.00;99908.22;5064434;28;20033;-72
2024/02/26 07:26:32;;;;;;;19.67;9.07;;;;;;;4.14;100.00;99914.31;5061515;28;20025;-72
2024/02/26 07:28:58;;;;;;;20.95;10.20;;;;;;;4.11;100.00;99911.66;5063350;28;20111;-73
2024/02/26 07:31:23;;;;;;;19.50;9.00;;;;;;;4.13;100.00;99918.66;5062241;28;20031;-72
2024/02/26 07:33:48;;;;;;;19.60;9.27;;;;;;;4.15;100.00;99919.59;5062414;28;20120;-72
2024/02/26 07:36:14;;;;;;;20.00;9.85;;;;;;;4.18;100.00;99924.84;5062406;28;20107;-73
2024/02/26 07:38:39;;;;;;;19.45;8.98;;;;;;;4.19;100.00;99930.97;5059660;28;20060;-73
2024/02/26 07:41:05;;;;;;;20.05;9.65;;;;;;;4.25;100.00;99941.53;5064512;28;20020;-72
2024/02/26 07:43:30;;;;;;;19.67;9.75;;;;;;;4.24;100.00;99941.50;5061273;28;20025;-73
2024/02/26 07:45:55;;;;;;;19.95;9.60;;;;;;;4.22;100.00;99946.69;5062885;28;20021;-73
2024/02/26 07:48:21;;;;;;;22.75;13.70;;;;;;;4.25;100.00;99957.25;5062735;28;20089;-75
2024/02/26 07:50:46;;;;;;;20.30;10.85;;;;;;;4.25;100.00;99948.50;5061626;28;20032;-74
2024/02/26 07:53:12;;;;;;;22.45;12.68;;;;;;;4.22;100.00;99944.09;5064071;28;20028;-73
2024/02/26 07:55:37;;;;;;;20.30;8.20;;;;;;;4.25;100.00;99957.25;5060597;28;20476;-73
2024/02/26 07:58:02;;;;;;;18.08;7.80;;;;;;;4.20;100.00;99958.88;5063691;28;20037;-73
2024/02/26 08:00:28;;;;;;;17.98;7.65;;;;;;;4.24;100.00;99962.41;5060517;28;20029;-74
2024/02/26 08:02:53;;;;;;;18.70;8.02;;;;;;;4.26;100.00;99960.72;5062150;28;20052;-72
2024/02/26 08:05:19;;;;;;;18.77;7.60;;;;;;;4.24;100.00;99972.88;5063582;28;20080;-73
2024/02/26 08:07:44;;;;;;;18.08;7.85;;;;;;;4.24;100.00;99976.41;5061536;28;20045;-72
2024/02/26 08:10:11;;;;;;;18.75;7.97;;;;;;;4.26;100.00;99979.03;5066367;28;20043;-72
2024/02/26 08:12:36;;;;;;;18.50;7.82;;;;;;;4.24;100.00;99980.72;5060714;28;20127;-72
2024/02/26 08:15:02;;;;;;;18.58;7.45;;;;;;;4.28;100.00;99985.16;5067697;28;20523;-74
2024/02/26 08:17:27;;;;;;;18.52;7.50;;;;;;;4.26;100.00;99986.91;5065411;28;20399;-72
2024/02/26 08:19:53;;;;;;;18.50;7.30;;;;;;;4.27;100.00;99991.28;5066133;28;20025;-74
2024/02/26 08:22:18;;;;;;;18.65;7.70;;;;;;;4.25;100.00;99992.97;5066875;28;20081;-74
2024/02/26 08:24:43;;;;;;;18.48;7.78;;;;;;;4.25;100.00;99999.09;5064863;28;20159;-73
2024/02/26 08:27:09;;;;;;;18.85;8.07;;;;;;;4.28;100.00;99995.63;5068019;28;20035;-74
2024/02/26 08:29:34;;;;;;;18.23;7.75;;;;;;;4.27;100.00;100006.97;5064541;28;20032;-74
2024/02/26 08:32:00;;;;;;;18.33;8.10;;;;;;;4.29;100.00;100000.88;5066838;28;20028;-72
2024/02/26 08:34:25;;;;;;;19.75;8.25;;;;;;;4.33;100.00;100007.06;5065956;28;20025;-85
2024/02/26 08:36:51;;;;;;;19.42;8.40;;;;;;;4.31;100.00;100008.75;5065646;28;20021;-83
2024/02/26 08:39:17;;;;;;;18.77;8.57;;;;;;;4.31;100.00;100007.03;5067141;28;20460;-83
2024/02/26 08:41:46;;;;;;;18.92;9.15;;;;;;;4.32;100.00;100015.75;5064937;28;20044;-85
2024/02/26 08:44:11;;;;;;;19.63;9.27;;;;;;;4.33;100.00;100018.41;5068162;28;20070;-86
2024/02/26 08:46:37;;;;;;;19.42;9.00;;;;;;;4.32;100.00;100019.25;5064366;28;20029;-86
2024/02/26 08:49:03;;;;;;;19.85;9.70;;;;;;;4.33;100.00;100026.25;5067840;28;20033;-78
2024/02/26 08:51:28;;;;;;;20.10;9.50;;;;;;;4.41;100.00;100026.38;5065797;28;20028;-87
2024/02/26 08:53:54;;;;;;;21.08;10.18;;;;;;;4.39;100.00;100028.09;5064961;28;20104;-78
2024/02/26 08:56:21;;;;;;;19.80;9.57;;;;;;;4.39;100.00;100030.72;5065179;28;20033;-86
2024/02/26 08:58:48;;;;;;;20.70;9.73;;;;;;;4.44;100.00;100039.53;5063310;28;20037;-87
2024/02/26 09:01:14;;;;;;;20.58;9.25;;;;;;;4.45;100.00;100043.03;5067122;28;20036;-78
2024/02/26 09:03:40;;;;;;;19.85;9.65;;;;;;;4.44;100.00;100047.38;5063654;28;20094;-78
2024/02/26 09:06:06;;;;;;;22.33;12.38;;;;;;;4.48;100.00;100050.94;5067303;28;20119;-88
2024/02/26 09:08:32;;;;;;;20.50;9.88;;;;;;;4.47;100.00;100055.28;5064491;28;20040;-83
2024/02/26 09:10:57;;;;;;;19.40;9.13;;;;;;;4.46;100.00;100053.53;5066214;28;20029;-84
2024/02/26 09:13:23;;;;;;;20.17;9.25;;;;;;;4.48;100.00;100061.41;5064127;28;20029;-82
2024/02/26 09:15:48;;;;;;;20.10;9.00;;;;;;;4.47;100.00;100057.91;5064429;28;20037;-83
2024/02/26 09:18:14;;;;;;;20.30;9.50;;;;;;;4.46;100.00;100063.13;5066588;28;20480;-88
2024/02/26 09:20:40;;;;;;;19.77;9.13;;;;;;;4.46;100.00;100063.13;5061371;28;20033;-80
2024/02/26 09:23:06;;;;;;;19.10;9.20;;;;;;;4.47;100.00;100071.00;5059600;28;20116;-81
2024/02/26 09:25:33;;;;;;;19.73;9.50;;;;;;;4.48;100.00;100079.72;5066250;28;20107;-72
2024/02/26 09:27:59;;;;;;;19.85;9.57;;;;;;;4.48;100.00;100079.72;5064095;28;20036;-73
2024/02/26 09:30:24;;;;;;;20.58;9.73;;;;;;;4.51;100.00;100088.53;5065230;28;20025;-73
2024/02/26 09:32:49;;;;;;;20.80;9.68;;;;;;;4.49;100.00;100084.97;5065253;28;20483;-72
2024/02/26 09:35:15;;;;;;;20.05;9.80;;;;;;;4.52;100.00;100086.78;5063601;28;20033;-73
2024/02/26 09:37:40;;;;;;;20.23;9.90;;;;;;;4.53;100.00;100088.53;5059215;28;20379;-74
2024/02/26 09:40:06;;;;;;;19.92;9.90;;;;;;;4.53;100.00;100089.41;5063250;28;20021;-72
2024/02/26 09:42:34;;;;;;;20.02;9.90;;;;;;;4.55;100.00;100097.28;5066451;28;20036;-73
2024/02/26 09:45:04;;;;;;;20.13;9.82;;;;;;;4.54;100.00;100101.66;5059101;28;20128;-73
2024/02/26 09:47:31;;;;;;;20.80;10.70;;;;;;;4.53;100.00;100105.13;5065165;28;20387;-72
2024/02/26 09:49:58;;;;;;;21.25;10.98;;;;;;;4.56;100.00;100114.78;5065611;28;20039;-75
2024/02/26 09:52:26;;;;;;;20.83;10.65;;;;;;;4.58;100.00;100113.03;5066011;28;20028;-75
2024/02/26 09:54:51;;;;;;;20.67;10.93;;;;;;;4.57;100.00;100115.63;5061554;28;20021;-74
2024/02/26 09:57:17;;;;;;;21.27;11.25;;;;;;;4.62;100.00;100119.22;5063457;28;20537;-74
2024/02/26 09:59:44;;;;;;;21.05;11.02;;;;;;;4.59;100.00;100121.78;5063401;28;20036;-74
2024/02/26 10:02:12;;;;;;;21.88;11.48;;;;;;;4.60;100.00;100126.16;5064594;28;20082;-73
2024/02/26 10:04:39;;;;;;;21.98;12.05;;;;;;;4.58;100.00;100134.00;5062197;28;20098;-73
2024/02/26 10:07:10;;;;;;;21.83;12.00;;;;;;;4.60;100.00;100136.63;5065090;28;20033;-72
2024/02/26 10:09:35;;;;;;;21.65;11.98;;;;;;;4.58;100.00;100139.22;5063433;28;20041;-73
2024/02/26 10:12:01;;;;;;;23.52;12.00;;;;;;;4.57;100.00;100147.94;5065663;28;20083;-73
2024/02/26 10:14:27;;;;;;;21.73;12.20;;;;;;;4.56;100.00;100142.66;5065721;28;20083;-73
2024/02/26 10:16:52;;;;;;;21.70;12.00;;;;;;;4.59;100.00;100161.03;5060090;28;20654;-75
2024/02/26 10:19:29;;;;;;;21.75;12.25;;;;;;;4.63;100.00;100161.16;5062366;28;20025;-74
2024/02/26 10:21:58;;;;;;;22.67;13.00;;;;;;;4.58;100.00;100170.63;5055904;28;20025;-73
2024/02/26 10:24:27;;;;;;;22.48;12.85;;;;;;;4.59;100.00;100168.91;5055701;28;20035;-75
2024/02/26 10:26:54;;;;;;;23.15;13.35;;;;;;;4.64;100.00;100180.34;5055454;28;20036;-74
2024/02/26 10:29:21;;;;;;;23.20;13.77;;;;;;;4.65;100.00;100172.50;5062736;28;20475;-76
2024/02/26 10:31:47;;;;;;;23.33;13.63;;;;;;;4.66;100.00;100179.53;5060809;28;20033;-73
2024/02/26 10:34:14;;;;;;;23.35;14.55;;;;;;;4.66;100.00;100184.75;5063559;28;20489;-74
2024/02/26 10:36:43;;;;;;;24.38;14.38;;;;;;;4.70;100.00;100185.69;5062884;28;20032;-82
2024/02/26 10:39:09;;;;;;;24.27;14.65;;;;;;;4.71;100.00;100197.94;5064346;28;20036;-83
2024/02/26 10:41:34;;;;;;;24.20;14.77;;;;;;;4.73;100.00;100198.81;5063505;28;20025;-78
2024/02/26 10:44:00;;;;;;;23.90;14.90;;;;;;;4.74;100.00;100203.22;5062756;28;20053;-83
2024/02/26 10:46:26;;;;;;;23.88;14.27;;;;;;;4.76;100.00;100198.91;5065037;28;20379;-80
2024/02/26 10:48:52;;;;;;;24.25;15.60;;;;;;;4.76;100.00;100216.34;5061723;28;20033;-83
2024/02/26 10:51:26;;;;;;;24.35;15.02;;;;;;;4.79;100.00;100224.25;5057572;28;20029;-83
2024/02/26 10:53:57;;;;;;;24.00;14.85;;;;;;;4.75;100.00;100219.81;5057757;28;20512;-79
2024/02/26 10:56:27;;;;;;;24.80;15.32;;;;;;;4.75;100.00;100225.03;5056809;28;20021;-82
2024/02/26 10:58:53;;;;;;;24.80;15.38;;;;;;;4.75;100.00;100223.31;5064801;28;20024;-81
2024/02/26 11:01:21;;;;;;;24.55;15.55;;;;;;;4.74;100.00;100229.41;5061313;28;20090;-78
2024/02/26 11:03:49;;;;;;;24.55;14.98;;;;;;;4.74;100.00;100234.66;5064648;28;20045;-83
2024/02/26 11:06:15;;;;;;;24.50;15.30;;;;;;;4.70;100.00;100228.47;5061970;28;20048;-75
2024/02/26 11:08:41;;;;;;;24.67;14.85;;;;;;;4.74;100.00;100242.50;5063637;28;20484;-84
2024/02/26 11:11:07;;;;;;;25.17;15.10;;;;;;;4.72;100.00;100237.22;5062992;28;20523;-75
2024/02/26 11:13:34;;;;;;;24.25;14.77;;;;;;;4.76;100.00;100239.91;5061363;28;20025;-77
2024/02/26 11:16:01;;;;;;;24.52;15.02;;;;;;;4.80;100.00;100245.22;5063428;28;20036;-77